sensor_id;sensor_type;location;lat;lon;timestamp;pressure;altitude;pressure_sealevel;temperature;humidity
62881;BME280;48969;49.934;8.596;2022-08-21T00:01:19;100675.69;;;20.78;59.16
62881;BME280;48969;49.934;8.596;2022-08-21T00:03:45;100667.50;;;20.88;59.34
62881;BME280;48969;49.934;8.596;2022-08-21T00:06:10;100666.94;;;20.84;58.73
62881;BME280;48969;49.934;8.596;2022-08-21T00:08:35;100666.44;;;20.81;58.86
62881;BME280;48969;49.934;8.596;2022-08-21T00:11:02;100665.34;;;20.92;59.39
62881;BME280;48969;49.934;8.596;2022-08-21T00:13:28;100656.63;;;20.98;58.70
62881;BME280;48969;49.934;8.596;2022-08-21T00:15:53;100655.00;;;21.05;58.39
62881;BME280;48969;49.934;8.596;2022-08-21T00:18:19;100654.22;;;21.13;58.17
62881;BME280;48969;49.934;8.596;2022-08-21T00:20:46;100645.66;;;21.17;57.79
62881;BME280;48969;49.934;8.596;2022-08-21T00:23:12;100644.22;;;21.05;57.91
62881;BME280;48969;49.934;8.596;2022-08-21T00:25:39;100645.09;;;21.05;58.19
62881;BME280;48969;49.934;8.596;2022-08-21T00:28:05;100652.22;;;20.43;58.78
62881;BME280;48969;49.934;8.596;2022-08-21T00:30:32;100642.53;;;20.32;59.76
62881;BME280;48969;49.934;8.596;2022-08-21T00:32:57;100647.28;;;20.38;59.75
62881;BME280;48969;49.934;8.596;2022-08-21T00:35:27;100649.28;;;20.36;59.76
62881;BME280;48969;49.934;8.596;2022-08-21T00:37:52;100644.28;;;20.23;60.04
62881;BME280;48969;49.934;8.596;2022-08-21T00:40:22;100648.50;;;20.26;60.60
62881;BME280;48969;49.934;8.596;2022-08-21T00:42:48;100650.59;;;20.04;61.26
62881;BME280;48969;49.934;8.596;2022-08-21T00:45:30;100643.19;;;20.16;61.01
62881;BME280;48969;49.934;8.596;2022-08-21T00:47:57;100644.72;;;20.19;60.74
62881;BME280;48969;49.934;8.596;2022-08-21T00:50:26;100654.41;;;20.12;60.70
62881;BME280;48969;49.934;8.596;2022-08-21T00:52:53;100646.88;;;20.15;60.88
62881;BME280;48969;49.934;8.596;2022-08-21T00:55:20;100647.66;;;20.25;60.59
62881;BME280;48969;49.934;8.596;2022-08-21T00:57:50;100646.31;;;20.39;60.11
62881;BME280;48969;49.934;8.596;2022-08-21T01:00:20;100644.97;;;20.43;59.63
62881;BME280;48969;49.934;8.596;2022-08-21T01:02:46;100641.22;;;20.54;59.68
62881;BME280;48969;49.934;8.596;2022-08-21T01:05:12;100646.19;;;20.59;59.60
62881;BME280;48969;49.934;8.596;2022-08-21T01:07:38;100653.56;;;20.57;59.62
62881;BME280;48969;49.934;8.596;2022-08-21T01:10:05;100645.50;;;20.29;59.80
62881;BME280;48969;49.934;8.596;2022-08-21T01:12:31;100652.50;;;20.22;60.13
62881;BME280;48969;49.934;8.596;2022-08-21T01:14:57;100645.69;;;20.27;60.05
62881;BME280;48969;49.934;8.596;2022-08-21T01:17:24;100649.44;;;20.35;60.24
62881;BME280;48969;49.934;8.596;2022-08-21T01:19:49;100652.06;;;20.44;59.51
62881;BME280;48969;49.934;8.596;2022-08-21T01:22:15;100647.53;;;20.45;59.38
62881;BME280;48969;49.934;8.596;2022-08-21T01:24:40;100653.16;;;20.52;60.85
62881;BME280;48969;49.934;8.596;2022-08-21T01:27:06;100651.59;;;20.49;59.92
62881;BME280;48969;49.934;8.596;2022-08-21T01:32:11;100643.03;;;19.90;61.20
62881;BME280;48969;49.934;8.596;2022-08-21T01:34:41;100650.78;;;19.93;61.12
62881;BME280;48969;49.934;8.596;2022-08-21T01:37:07;100653.47;;;20.03;60.86
62881;BME280;48969;49.934;8.596;2022-08-21T01:39:34;100656.78;;;20.15;60.63
62881;BME280;48969;49.934;8.596;2022-08-21T01:41:59;100650.22;;;19.52;61.91
62881;BME280;48969;49.934;8.596;2022-08-21T01:44:26;100653.94;;;19.41;62.19
62881;BME280;48969;49.934;8.596;2022-08-21T01:46:51;100640.72;;;19.58;61.91
62881;BME280;48969;49.934;8.596;2022-08-21T01:49:17;100647.38;;;19.73;61.77
62881;BME280;48969;49.934;8.596;2022-08-21T01:51:42;100639.72;;;19.59;61.95
62881;BME280;48969;49.934;8.596;2022-08-21T01:54:08;100645.22;;;19.20;62.56
62881;BME280;48969;49.934;8.596;2022-08-21T01:56:43;100637.03;;;19.12;63.02
62881;BME280;48969;49.934;8.596;2022-08-21T01:59:10;100642.97;;;19.06;63.52
62881;BME280;48969;49.934;8.596;2022-08-21T02:01:35;100641.84;;;18.79;64.17
62881;BME280;48969;49.934;8.596;2022-08-21T02:04:01;100639.19;;;18.89;63.96
62881;BME280;48969;49.934;8.596;2022-08-21T02:06:26;100644.66;;;18.68;64.26
62881;BME280;48969;49.934;8.596;2022-08-21T02:08:52;100645.91;;;18.54;64.92
62881;BME280;48969;49.934;8.596;2022-08-21T02:11:18;100638.00;;;18.72;64.33
62881;BME280;48969;49.934;8.596;2022-08-21T02:13:44;100646.09;;;18.52;65.12
62881;BME280;48969;49.934;8.596;2022-08-21T02:16:10;100642.69;;;18.60;64.86
62881;BME280;48969;49.934;8.596;2022-08-21T02:18:36;100639.56;;;18.45;65.43
62881;BME280;48969;49.934;8.596;2022-08-21T02:21:01;100629.94;;;18.43;65.33
62881;BME280;48969;49.934;8.596;2022-08-21T02:23:27;100640.41;;;18.55;65.30
62881;BME280;48969;49.934;8.596;2022-08-21T02:25:53;100633.06;;;18.57;64.96
62881;BME280;48969;49.934;8.596;2022-08-21T02:28:19;100638.88;;;18.63;64.97
62881;BME280;48969;49.934;8.596;2022-08-21T02:30:46;100633.34;;;18.74;64.95
62881;BME280;48969;49.934;8.596;2022-08-21T02:33:12;100624.78;;;18.80;64.78
62881;BME280;48969;49.934;8.596;2022-08-21T02:35:39;100627.16;;;18.83;64.83
62881;BME280;48969;49.934;8.596;2022-08-21T02:38:09;100632.13;;;18.78;64.51
62881;BME280;48969;49.934;8.596;2022-08-21T02:40:37;100638.84;;;18.72;64.91
62881;BME280;48969;49.934;8.596;2022-08-21T02:43:05;100632.53;;;18.64;64.45
62881;BME280;48969;49.934;8.596;2022-08-21T02:45:30;100631.81;;;18.62;64.80
62881;BME280;48969;49.934;8.596;2022-08-21T02:48:02;100634.34;;;18.73;64.72
62881;BME280;48969;49.934;8.596;2022-08-21T02:53:49;100630.94;;;19.19;63.35
62881;BME280;48969;49.934;8.596;2022-08-21T02:56:17;100640.25;;;19.35;62.57
62881;BME280;48969;49.934;8.596;2022-08-21T02:58:47;100633.84;;;19.46;62.61
62881;BME280;48969;49.934;8.596;2022-08-21T03:01:14;100634.09;;;19.52;62.27
62881;BME280;48969;49.934;8.596;2022-08-21T03:03:42;100636.06;;;19.60;62.21
62881;BME280;48969;49.934;8.596;2022-08-21T03:06:10;100635.91;;;19.61;62.01
62881;BME280;48969;49.934;8.596;2022-08-21T03:08:35;100631.06;;;19.65;61.41
62881;BME280;48969;49.934;8.596;2022-08-21T03:11:01;100635.09;;;19.51;61.98
62881;BME280;48969;49.934;8.596;2022-08-21T03:13:28;100627.94;;;19.32;62.38
62881;BME280;48969;49.934;8.596;2022-08-21T03:15:53;100624.41;;;19.22;62.80
62881;BME280;48969;49.934;8.596;2022-08-21T03:18:19;100627.00;;;19.14;63.19
62881;BME280;48969;49.934;8.596;2022-08-21T03:20:45;100626.56;;;19.09;63.20
62881;BME280;48969;49.934;8.596;2022-08-21T03:23:11;100623.75;;;19.00;63.28
62881;BME280;48969;49.934;8.596;2022-08-21T03:25:38;100623.75;;;19.00;63.58
62881;BME280;48969;49.934;8.596;2022-08-21T03:28:05;100630.53;;;19.14;63.11
62881;BME280;48969;49.934;8.596;2022-08-21T03:30:31;100637.28;;;19.28;62.69
62881;BME280;48969;49.934;8.596;2022-08-21T03:32:58;100632.44;;;19.41;62.09
62881;BME280;48969;49.934;8.596;2022-08-21T03:35:25;100640.69;;;19.30;62.59
62881;BME280;48969;49.934;8.596;2022-08-21T03:37:51;100639.28;;;19.16;62.83
62881;BME280;48969;49.934;8.596;2022-08-21T03:40:18;100631.81;;;19.00;62.95
62881;BME280;48969;49.934;8.596;2022-08-21T03:42:44;100630.41;;;18.77;63.60
62881;BME280;48969;49.934;8.596;2022-08-21T03:45:13;100642.13;;;18.66;63.79
62881;BME280;48969;49.934;8.596;2022-08-21T03:47:39;100644.22;;;18.43;64.19
62881;BME280;48969;49.934;8.596;2022-08-21T03:50:05;100648.00;;;18.31;64.67
62881;BME280;48969;49.934;8.596;2022-08-21T03:52:30;100644.06;;;18.25;64.99
62881;BME280;48969;49.934;8.596;2022-08-21T03:54:56;100655.56;;;18.06;65.14
62881;BME280;48969;49.934;8.596;2022-08-21T03:57:21;100648.34;;;17.97;65.52
62881;BME280;48969;49.934;8.596;2022-08-21T03:59:46;100651.44;;;17.92;65.57
62881;BME280;48969;49.934;8.596;2022-08-21T04:02:15;100649.16;;;17.88;65.59
62881;BME280;48969;49.934;8.596;2022-08-21T04:04:42;100654.75;;;17.75;66.04
62881;BME280;48969;49.934;8.596;2022-08-21T04:07:08;100652.06;;;17.75;66.10
62881;BME280;48969;49.934;8.596;2022-08-21T04:09:33;100656.25;;;17.89;66.06
62881;BME280;48969;49.934;8.596;2022-08-21T04:11:58;100662.06;;;18.04;65.87
62881;BME280;48969;49.934;8.596;2022-08-21T04:14:24;100662.25;;;18.12;65.67
62881;BME280;48969;49.934;8.596;2022-08-21T04:16:49;100664.69;;;18.25;65.26
62881;BME280;48969;49.934;8.596;2022-08-21T04:19:15;100661.91;;;18.36;65.14
62881;BME280;48969;49.934;8.596;2022-08-21T04:21:40;100672.47;;;18.37;64.87
62881;BME280;48969;49.934;8.596;2022-08-21T04:24:07;100667.09;;;18.37;64.57
62881;BME280;48969;49.934;8.596;2022-08-21T04:26:37;100675.69;;;18.22;64.86
62881;BME280;48969;49.934;8.596;2022-08-21T04:29:04;100671.97;;;18.03;65.26
62881;BME280;48969;49.934;8.596;2022-08-21T04:31:33;100675.47;;;17.94;65.53
62881;BME280;48969;49.934;8.596;2022-08-21T04:33:59;100683.00;;;17.79;65.75
62881;BME280;48969;49.934;8.596;2022-08-21T04:36:25;100685.91;;;17.66;66.09
62881;BME280;48969;49.934;8.596;2022-08-21T04:38:51;100689.25;;;17.59;66.64
62881;BME280;48969;49.934;8.596;2022-08-21T04:41:16;100688.22;;;17.50;66.90
62881;BME280;48969;49.934;8.596;2022-08-21T04:43:42;100689.06;;;17.29;67.50
62881;BME280;48969;49.934;8.596;2022-08-21T04:46:08;100694.50;;;17.18;68.03
62881;BME280;48969;49.934;8.596;2022-08-21T04:48:33;100688.53;;;17.14;68.00
62881;BME280;48969;49.934;8.596;2022-08-21T04:51:09;100694.09;;;17.23;68.04
62881;BME280;48969;49.934;8.596;2022-08-21T04:53:47;100691.59;;;17.31;67.85
62881;BME280;48969;49.934;8.596;2022-08-21T04:58:56;100700.63;;;17.51;67.51
62881;BME280;48969;49.934;8.596;2022-08-21T05:01:23;100708.59;;;17.62;67.75
62881;BME280;48969;49.934;8.596;2022-08-21T05:03:52;100706.63;;;17.64;67.34
62881;BME280;48969;49.934;8.596;2022-08-21T05:06:20;100704.66;;;17.66;67.72
62881;BME280;48969;49.934;8.596;2022-08-21T05:08:48;100703.44;;;17.70;67.56
62881;BME280;48969;49.934;8.596;2022-08-21T05:11:14;100710.63;;;17.70;67.42
62881;BME280;48969;49.934;8.596;2022-08-21T05:13:39;100707.75;;;17.62;67.71
62881;BME280;48969;49.934;8.596;2022-08-21T05:16:06;100709.59;;;17.61;67.90
62881;BME280;48969;49.934;8.596;2022-08-21T05:18:31;100713.22;;;17.60;68.23
62881;BME280;48969;49.934;8.596;2022-08-21T05:20:57;100710.56;;;17.60;68.37
62881;BME280;48969;49.934;8.596;2022-08-21T05:23:22;100714.69;;;17.64;68.66
62881;BME280;48969;49.934;8.596;2022-08-21T05:25:47;100713.72;;;17.65;68.77
62881;BME280;48969;49.934;8.596;2022-08-21T05:28:13;100709.91;;;17.68;68.90
62881;BME280;48969;49.934;8.596;2022-08-21T05:30:38;100714.16;;;17.70;68.94
62881;BME280;48969;49.934;8.596;2022-08-21T05:33:05;100708.63;;;17.72;68.95
62881;BME280;48969;49.934;8.596;2022-08-21T05:35:31;100720.41;;;17.81;69.00
62881;BME280;48969;49.934;8.596;2022-08-21T05:37:57;100708.19;;;17.88;68.93
62881;BME280;48969;49.934;8.596;2022-08-21T05:40:23;100715.69;;;17.94;68.46
62881;BME280;48969;49.934;8.596;2022-08-21T05:42:53;100713.09;;;17.83;69.11
62881;BME280;48969;49.934;8.596;2022-08-21T05:45:19;100714.88;;;17.72;69.11
62881;BME280;48969;49.934;8.596;2022-08-21T05:47:44;100717.41;;;17.74;69.32
62881;BME280;48969;49.934;8.596;2022-08-21T05:50:09;100709.91;;;17.89;69.95
62881;BME280;48969;49.934;8.596;2022-08-21T05:52:35;100720.03;;;18.16;69.27
62881;BME280;48969;49.934;8.596;2022-08-21T05:55:00;100714.72;;;18.35;68.63
62881;BME280;48969;49.934;8.596;2022-08-21T05:57:26;100709.94;;;18.49;68.78
62881;BME280;48969;49.934;8.596;2022-08-21T05:59:51;100710.81;;;18.59;68.91
62881;BME280;48969;49.934;8.596;2022-08-21T06:02:18;100711.38;;;18.63;68.15
62881;BME280;48969;49.934;8.596;2022-08-21T06:04:44;100717.47;;;18.65;68.52
62881;BME280;48969;49.934;8.596;2022-08-21T06:07:09;100722.00;;;18.74;68.33
62881;BME280;48969;49.934;8.596;2022-08-21T06:09:34;100718.50;;;18.83;68.04
62881;BME280;48969;49.934;8.596;2022-08-21T06:12:05;100718.50;;;18.93;67.93
62881;BME280;48969;49.934;8.596;2022-08-21T06:14:30;100720.22;;;19.04;67.61
62881;BME280;48969;49.934;8.596;2022-08-21T06:17:02;100719.66;;;19.10;67.34
62881;BME280;48969;49.934;8.596;2022-08-21T06:19:27;100717.38;;;19.15;66.84
62881;BME280;48969;49.934;8.596;2022-08-21T06:21:53;100717.09;;;19.28;67.05
62881;BME280;48969;49.934;8.596;2022-08-21T06:24:18;100717.75;;;19.49;66.43
62881;BME280;48969;49.934;8.596;2022-08-21T06:26:44;100718.72;;;19.68;65.39
62881;BME280;48969;49.934;8.596;2022-08-21T06:29:09;100717.28;;;19.83;64.11
62881;BME280;48969;49.934;8.596;2022-08-21T06:31:38;100715.25;;;19.95;63.77
62881;BME280;48969;49.934;8.596;2022-08-21T06:34:04;100715.91;;;20.06;63.33
62881;BME280;48969;49.934;8.596;2022-08-21T06:36:29;100725.50;;;20.19;62.85
62881;BME280;48969;49.934;8.596;2022-08-21T06:38:54;100719.38;;;20.26;61.54
62881;BME280;48969;49.934;8.596;2022-08-21T06:41:19;100717.75;;;20.34;61.47
62881;BME280;48969;49.934;8.596;2022-08-21T06:43:45;100720.56;;;20.42;61.14
62881;BME280;48969;49.934;8.596;2022-08-21T06:46:10;100719.78;;;20.50;60.74
62881;BME280;48969;49.934;8.596;2022-08-21T06:48:35;100720.50;;;20.52;61.60
62881;BME280;48969;49.934;8.596;2022-08-21T06:51:01;100717.38;;;20.56;60.66
62881;BME280;48969;49.934;8.596;2022-08-21T06:53:27;100719.47;;;20.62;60.57
62881;BME280;48969;49.934;8.596;2022-08-21T06:55:53;100713.63;;;20.67;61.54
62881;BME280;48969;49.934;8.596;2022-08-21T06:58:18;100713.16;;;20.72;59.69
62881;BME280;48969;49.934;8.596;2022-08-21T07:00:47;100715.25;;;20.78;59.39
62881;BME280;48969;49.934;8.596;2022-08-21T07:03:28;100718.16;;;20.84;59.45
62881;BME280;48969;49.934;8.596;2022-08-21T07:05:54;100709.63;;;20.89;60.32
62881;BME280;48969;49.934;8.596;2022-08-21T07:08:20;100704.63;;;20.94;60.84
62881;BME280;48969;49.934;8.596;2022-08-21T07:10:47;100706.88;;;20.99;60.16
62881;BME280;48969;49.934;8.596;2022-08-21T07:13:13;100708.53;;;21.00;61.12
62881;BME280;48969;49.934;8.596;2022-08-21T07:15:38;100705.25;;;21.06;60.76
62881;BME280;48969;49.934;8.596;2022-08-21T07:18:04;100712.16;;;21.26;58.28
62881;BME280;48969;49.934;8.596;2022-08-21T07:20:30;100708.13;;;21.30;57.97
62881;BME280;48969;49.934;8.596;2022-08-21T07:23:05;100715.31;;;21.22;59.22
62881;BME280;48969;49.934;8.596;2022-08-21T07:25:31;100704.38;;;21.23;59.04
62881;BME280;48969;49.934;8.596;2022-08-21T07:27:56;100705.75;;;21.27;59.43
62881;BME280;48969;49.934;8.596;2022-08-21T07:30:22;100700.41;;;21.36;58.64
62881;BME280;48969;49.934;8.596;2022-08-21T07:32:47;100705.63;;;21.55;58.45
62881;BME280;48969;49.934;8.596;2022-08-21T07:35:14;100704.41;;;21.49;58.45
62881;BME280;48969;49.934;8.596;2022-08-21T07:37:40;100698.88;;;21.51;59.19
62881;BME280;48969;49.934;8.596;2022-08-21T07:40:06;100690.34;;;21.64;59.19
62881;BME280;48969;49.934;8.596;2022-08-21T07:42:31;100701.13;;;21.64;58.73
62881;BME280;48969;49.934;8.596;2022-08-21T07:44:57;100694.34;;;21.60;59.79
62881;BME280;48969;49.934;8.596;2022-08-21T07:47:22;100687.16;;;21.68;59.34
62881;BME280;48969;49.934;8.596;2022-08-21T07:49:47;100683.63;;;21.68;60.67
62881;BME280;48969;49.934;8.596;2022-08-21T07:52:13;100688.69;;;21.71;61.20
62881;BME280;48969;49.934;8.596;2022-08-21T07:54:38;100684.84;;;21.74;61.56
62881;BME280;48969;49.934;8.596;2022-08-21T07:57:03;100678.97;;;21.78;61.83
62881;BME280;48969;49.934;8.596;2022-08-21T07:59:29;100686.63;;;21.91;61.09
62881;BME280;48969;49.934;8.596;2022-08-21T08:01:54;100687.16;;;22.03;60.51
62881;BME280;48969;49.934;8.596;2022-08-21T08:04:19;100678.56;;;22.07;60.50
62881;BME280;48969;49.934;8.596;2022-08-21T08:06:45;100687.16;;;22.03;61.88
62881;BME280;48969;49.934;8.596;2022-08-21T08:09:10;100680.47;;;22.15;60.51
62881;BME280;48969;49.934;8.596;2022-08-21T08:11:39;100680.97;;;22.19;61.22
62881;BME280;48969;49.934;8.596;2022-08-21T08:14:06;100677.78;;;22.15;62.00
62881;BME280;48969;49.934;8.596;2022-08-21T08:16:31;100675.69;;;22.43;60.66
62881;BME280;48969;49.934;8.596;2022-08-21T08:21:21;100681.94;;;22.44;61.16
62881;BME280;48969;49.934;8.596;2022-08-21T08:23:47;100684.97;;;22.41;61.02
62881;BME280;48969;49.934;8.596;2022-08-21T08:26:12;100672.50;;;22.48;61.61
62881;BME280;48969;49.934;8.596;2022-08-21T08:28:38;100673.00;;;22.43;61.32
62881;BME280;48969;49.934;8.596;2022-08-21T08:31:03;100677.25;;;22.62;59.94
62881;BME280;48969;49.934;8.596;2022-08-21T08:33:29;100674.41;;;22.80;59.85
62881;BME280;48969;49.934;8.596;2022-08-21T08:35:55;100671.22;;;22.93;59.00
62881;BME280;48969;49.934;8.596;2022-08-21T08:38:22;100666.78;;;22.75;60.60
62881;BME280;48969;49.934;8.596;2022-08-21T08:43:20;100660.59;;;23.00;59.80
62881;BME280;48969;49.934;8.596;2022-08-21T08:45:48;100653.97;;;22.94;59.95
62881;BME280;48969;49.934;8.596;2022-08-21T08:51:00;100655.50;;;22.88;60.39
62881;BME280;48969;49.934;8.596;2022-08-21T08:53:34;100644.00;;;22.94;60.10
62881;BME280;48969;49.934;8.596;2022-08-21T08:56:03;100648.94;;;22.99;60.42
62881;BME280;48969;49.934;8.596;2022-08-21T08:58:33;100645.72;;;23.12;60.15
62881;BME280;48969;49.934;8.596;2022-08-21T09:01:05;100640.28;;;23.28;58.54
62881;BME280;48969;49.934;8.596;2022-08-21T09:03:36;100635.88;;;23.19;59.42
62881;BME280;48969;49.934;8.596;2022-08-21T09:06:21;100637.59;;;23.12;59.11
62881;BME280;48969;49.934;8.596;2022-08-21T09:08:55;100636.75;;;23.20;59.24
62881;BME280;48969;49.934;8.596;2022-08-21T09:11:58;100624.03;;;23.36;59.05
62881;BME280;48969;49.934;8.596;2022-08-21T09:15:06;100626.94;;;23.27;59.90
62881;BME280;48969;49.934;8.596;2022-08-21T09:18:54;100621.28;;;23.53;58.18
62881;BME280;48969;49.934;8.596;2022-08-21T09:21:48;100616.53;;;23.55;57.46
62881;BME280;48969;49.934;8.596;2022-08-21T09:27:14;100622.63;;;24.05;52.89
62881;BME280;48969;49.934;8.596;2022-08-21T09:30:00;100620.34;;;23.85;54.88
62881;BME280;48969;49.934;8.596;2022-08-21T09:32:30;100627.56;;;24.01;53.34
62881;BME280;48969;49.934;8.596;2022-08-21T09:35:12;100623.34;;;24.30;50.10
62881;BME280;48969;49.934;8.596;2022-08-21T09:38:01;100612.06;;;24.18;50.57
62881;BME280;48969;49.934;8.596;2022-08-21T09:40:44;100623.31;;;24.07;51.63
62881;BME280;48969;49.934;8.596;2022-08-21T09:45:45;100624.06;;;24.47;49.40
62881;BME280;48969;49.934;8.596;2022-08-21T09:48:48;100620.69;;;24.21;50.22
62881;BME280;48969;49.934;8.596;2022-08-21T09:51:27;100624.28;;;24.14;50.39
62881;BME280;48969;49.934;8.596;2022-08-21T09:54:29;100615.69;;;24.33;48.98
62881;BME280;48969;49.934;8.596;2022-08-21T09:57:36;100614.25;;;24.23;51.28
62881;BME280;48969;49.934;8.596;2022-08-21T10:03:16;100612.72;;;24.51;50.32
62881;BME280;48969;49.934;8.596;2022-08-21T10:06:25;100612.56;;;24.45;51.54
62881;BME280;48969;49.934;8.596;2022-08-21T10:11:27;100600.66;;;24.54;50.95
62881;BME280;48969;49.934;8.596;2022-08-21T10:17:58;100602.72;;;24.52;50.82
62881;BME280;48969;49.934;8.596;2022-08-21T10:20:43;100601.13;;;24.66;48.96
62881;BME280;48969;49.934;8.596;2022-08-21T10:23:58;100588.69;;;24.71;49.52
62881;BME280;48969;49.934;8.596;2022-08-21T10:27:02;100589.91;;;24.83;48.37
62881;BME280;48969;49.934;8.596;2022-08-21T10:36:16;100575.47;;;24.91;49.91
62881;BME280;48969;49.934;8.596;2022-08-21T10:39:37;100571.53;;;24.94;49.44
62881;BME280;48969;49.934;8.596;2022-08-21T10:51:10;100564.66;;;25.36;46.42
62881;BME280;48969;49.934;8.596;2022-08-21T10:54:12;100572.06;;;25.27;47.03
62881;BME280;48969;49.934;8.596;2022-08-21T11:03:00;100572.66;;;25.52;46.75
62881;BME280;48969;49.934;8.596;2022-08-21T11:06:06;100563.63;;;25.96;45.14
62881;BME280;48969;49.934;8.596;2022-08-21T11:09:17;100561.94;;;25.80;43.55
62881;BME280;48969;49.934;8.596;2022-08-21T11:12:10;100553.25;;;25.55;47.01
62881;BME280;48969;49.934;8.596;2022-08-21T11:29:40;100532.22;;;25.79;44.41
62881;BME280;48969;49.934;8.596;2022-08-21T11:32:24;100529.59;;;26.00;43.63
62881;BME280;48969;49.934;8.596;2022-08-21T11:46:09;100523.03;;;25.43;46.51
62881;BME280;48969;49.934;8.596;2022-08-21T12:00:56;100513.66;;;25.46;46.21
62881;BME280;48969;49.934;8.596;2022-08-21T12:03:34;100505.97;;;25.50;45.36
62881;BME280;48969;49.934;8.596;2022-08-21T12:10:10;100504.81;;;25.59;45.96
62881;BME280;48969;49.934;8.596;2022-08-21T12:16:15;100512.19;;;25.80;45.03
62881;BME280;48969;49.934;8.596;2022-08-21T12:35:49;100488.63;;;25.65;44.36
62881;BME280;48969;49.934;8.596;2022-08-21T12:38:20;100497.16;;;25.48;45.42
62881;BME280;48969;49.934;8.596;2022-08-21T12:40:52;100501.00;;;25.53;45.01
62881;BME280;48969;49.934;8.596;2022-08-21T12:45:56;100481.03;;;25.76;43.52
62881;BME280;48969;49.934;8.596;2022-08-21T13:27:26;100460.75;;;25.57;43.87
62881;BME280;48969;49.934;8.596;2022-08-21T13:30:17;100458.66;;;25.59;43.76
62881;BME280;48969;49.934;8.596;2022-08-21T13:32:45;100450.09;;;25.40;45.75
62881;BME280;48969;49.934;8.596;2022-08-21T13:35:23;100446.47;;;25.48;45.47
62881;BME280;48969;49.934;8.596;2022-08-21T13:37:51;100445.22;;;25.51;45.18
62881;BME280;48969;49.934;8.596;2022-08-21T13:40:23;100446.31;;;25.56;44.12
62881;BME280;48969;49.934;8.596;2022-08-21T13:42:49;100444.41;;;25.50;44.48
62881;BME280;48969;49.934;8.596;2022-08-21T13:45:27;100440.97;;;25.63;43.24
62881;BME280;48969;49.934;8.596;2022-08-21T13:47:56;100438.19;;;25.56;44.36
62881;BME280;48969;49.934;8.596;2022-08-21T13:50:24;100444.25;;;25.58;43.42
62881;BME280;48969;49.934;8.596;2022-08-21T13:55:24;100438.88;;;25.80;42.46
62881;BME280;48969;49.934;8.596;2022-08-21T13:58:01;100435.22;;;25.73;44.50
62881;BME280;48969;49.934;8.596;2022-08-21T14:00:28;100438.06;;;25.64;43.00
62881;BME280;48969;49.934;8.596;2022-08-21T14:03:03;100435.56;;;25.84;41.19
62881;BME280;48969;49.934;8.596;2022-08-21T14:05:31;100426.97;;;25.81;40.43
62881;BME280;48969;49.934;8.596;2022-08-21T14:08:15;100416.91;;;25.96;39.86
62881;BME280;48969;49.934;8.596;2022-08-21T14:10:48;100409.84;;;26.23;38.88
62881;BME280;48969;49.934;8.596;2022-08-21T14:13:29;100412.59;;;26.30;38.63
62881;BME280;48969;49.934;8.596;2022-08-21T14:16:00;100413.38;;;26.24;38.33
62881;BME280;48969;49.934;8.596;2022-08-21T14:18:27;100409.97;;;26.15;38.73
62881;BME280;48969;49.934;8.596;2022-08-21T14:21:07;100407.72;;;25.97;39.57
62881;BME280;48969;49.934;8.596;2022-08-21T14:23:33;100403.09;;;25.76;40.59
62881;BME280;48969;49.934;8.596;2022-08-21T14:26:04;100401.94;;;25.85;40.28
62881;BME280;48969;49.934;8.596;2022-08-21T14:28:38;100401.50;;;25.82;41.73
62881;BME280;48969;49.934;8.596;2022-08-21T14:31:30;100397.72;;;25.83;41.44
62881;BME280;48969;49.934;8.596;2022-08-21T14:33:57;100397.41;;;25.71;42.42
62881;BME280;48969;49.934;8.596;2022-08-21T14:36:23;100394.81;;;25.63;42.37
62881;BME280;48969;49.934;8.596;2022-08-21T14:38:49;100391.41;;;25.76;40.74
62881;BME280;48969;49.934;8.596;2022-08-21T14:41:19;100392.94;;;25.63;42.40
62881;BME280;48969;49.934;8.596;2022-08-21T14:43:46;100387.91;;;25.60;42.91
62881;BME280;48969;49.934;8.596;2022-08-21T14:46:21;100377.50;;;25.64;42.55
62881;BME280;48969;49.934;8.596;2022-08-21T14:48:47;100381.56;;;25.75;41.35
62881;BME280;48969;49.934;8.596;2022-08-21T14:51:14;100382.66;;;25.80;40.72
62881;BME280;48969;49.934;8.596;2022-08-21T14:53:39;100378.78;;;25.68;41.94
62881;BME280;48969;49.934;8.596;2022-08-21T14:56:05;100380.28;;;25.71;41.09
62881;BME280;48969;49.934;8.596;2022-08-21T14:58:33;100378.34;;;25.64;41.54
62881;BME280;48969;49.934;8.596;2022-08-21T15:01:00;100380.34;;;25.56;42.23
62881;BME280;48969;49.934;8.596;2022-08-21T15:03:28;100384.34;;;25.81;40.26
62881;BME280;48969;49.934;8.596;2022-08-21T15:05:54;100383.47;;;25.96;40.01
62881;BME280;48969;49.934;8.596;2022-08-21T15:08:19;100380.53;;;25.76;40.51
62881;BME280;48969;49.934;8.596;2022-08-21T15:10:45;100381.16;;;25.56;42.07
62881;BME280;48969;49.934;8.596;2022-08-21T15:13:10;100381.81;;;25.58;40.51
62881;BME280;48969;49.934;8.596;2022-08-21T15:15:40;100378.53;;;25.63;41.10
62881;BME280;48969;49.934;8.596;2022-08-21T15:18:07;100376.72;;;25.70;40.69
62881;BME280;48969;49.934;8.596;2022-08-21T15:20:33;100381.84;;;25.80;39.90
62881;BME280;48969;49.934;8.596;2022-08-21T15:22:59;100379.00;;;25.88;39.80
62881;BME280;48969;49.934;8.596;2022-08-21T15:25:25;100383.09;;;25.84;39.58
62881;BME280;48969;49.934;8.596;2022-08-21T15:27:50;100377.34;;;25.72;40.33
62881;BME280;48969;49.934;8.596;2022-08-21T15:30:15;100367.59;;;25.56;41.09
62881;BME280;48969;49.934;8.596;2022-08-21T15:32:40;100382.78;;;25.51;41.35
62881;BME280;48969;49.934;8.596;2022-08-21T15:35:08;100385.19;;;25.39;42.47
62881;BME280;48969;49.934;8.596;2022-08-21T15:37:33;100374.56;;;25.44;41.60
62881;BME280;48969;49.934;8.596;2022-08-21T15:39:59;100375.91;;;25.33;41.97
62881;BME280;48969;49.934;8.596;2022-08-21T15:42:25;100374.50;;;25.37;41.32
62881;BME280;48969;49.934;8.596;2022-08-21T15:44:54;100371.88;;;25.29;42.65